Time;durP1;ratioP1;P1;durP2;ratioP2;P2;SDS_P1;SDS_P2;PMS_P1;PMS_P2;Temp;Humidity;BMP_temperature;BMP_pressure;BME280_temperature;BME280_humidity;BME280_pressure;Samples;Min_cycle;Max_cycle;Signal;HPM_P1;HPM_P2
2022/06/19 00:02:14;;;;;;;26.90;5.67;;;22.60;16.90;;;;;;4983513;28;21042;-60
2022/06/19 00:04:41;;;;;;;30.07;6.67;;;22.50;16.90;;;;;;4982228;28;20464;-60
2022/06/19 00:07:10;;;;;;;27.93;6.67;;;22.50;17.00;;;;;;4984182;28;20468;-60
2022/06/19 00:09:37;;;;;;;27.53;5.70;;;22.40;16.90;;;;;;4984415;28;20488;-60
2022/06/19 00:12:05;;;;;;;32.33;6.90;;;22.50;17.00;;;;;;4987252;28;20464;-60
2022/06/19 00:14:33;;;;;;;32.23;7.40;;;22.40;17.00;;;;;;4968581;28;20559;-60
2022/06/19 00:17:00;;;;;;;33.70;8.40;;;22.40;17.10;;;;;;4968744;28;20556;-60
2022/06/19 00:19:28;;;;;;;34.67;8.20;;;22.40;17.30;;;;;;4972519;28;20491;-60
2022/06/19 00:21:55;;;;;;;32.33;7.10;;;22.40;16.90;;;;;;4987599;28;20824;-60
2022/06/19 00:24:23;;;;;;;31.07;7.30;;;22.40;17.20;;;;;;4987018;28;20465;-60
2022/06/19 00:26:50;;;;;;;31.23;6.10;;;22.40;17.20;;;;;;4988193;28;20461;-60
2022/06/19 00:29:16;;;;;;;28.60;6.40;;;22.40;17.20;;;;;;4988162;28;20483;-60
2022/06/19 00:31:43;;;;;;;30.60;7.30;;;22.30;17.70;;;;;;4987772;28;20473;-60
2022/06/19 00:34:10;;;;;;;31.43;6.40;;;22.30;17.60;;;;;;4987116;28;20471;-69
2022/06/19 00:36:37;;;;;;;28.30;6.00;;;22.30;17.60;;;;;;4988226;28;20463;-68
2022/06/19 00:39:04;;;;;;;28.70;6.83;;;22.20;17.50;;;;;;4989495;28;20495;-67
2022/06/19 00:41:39;;;;;;;28.07;5.83;;;22.20;17.50;;;;;;4987925;28;20916;-67
2022/06/19 00:44:08;;;;;;;30.90;6.50;;;22.20;17.70;;;;;;4988766;28;20816;-68
2022/06/19 00:46:43;;;;;;;31.17;7.73;;;22.20;17.80;;;;;;4978239;28;20470;-69
2022/06/19 00:49:13;;;;;;;32.57;8.00;;;22.20;17.90;;;;;;4969806;28;20481;-68
2022/06/19 00:51:40;;;;;;;28.77;7.07;;;22.20;17.80;;;;;;4970000;28;20468;-68
2022/06/19 00:54:07;;;;;;;30.17;7.20;;;22.10;17.90;;;;;;4973929;28;20457;-69
2022/06/19 00:56:35;;;;;;;30.17;7.63;;;22.00;18.20;;;;;;4987390;28;20460;-67
2022/06/19 00:59:04;;;;;;;33.03;8.83;;;22.00;18.40;;;;;;4990437;28;20492;-68
2022/06/19 01:01:32;;;;;;;33.80;8.80;;;21.90;18.60;;;;;;4992577;28;20476;-69
2022/06/19 01:04:03;;;;;;;31.30;7.83;;;21.90;18.60;;;;;;4992315;28;20976;-69
2022/06/19 01:06:30;;;;;;;28.13;6.80;;;21.90;19.00;;;;;;4991309;28;20472;-67
2022/06/19 01:08:58;;;;;;;29.60;6.90;;;21.80;19.00;;;;;;4992575;28;20472;-68
2022/06/19 01:11:30;;;;;;;32.13;7.77;;;21.70;19.00;;;;;;4991984;28;20460;-68
2022/06/19 01:13:58;;;;;;;40.60;8.83;;;21.70;19.20;;;;;;4991963;28;20440;-70
2022/06/19 01:16:26;;;;;;;33.60;8.10;;;21.60;19.20;;;;;;4991136;28;20457;-68
2022/06/19 01:18:52;;;;;;;32.40;6.57;;;21.60;19.30;;;;;;4991070;28;21008;-66
2022/06/19 01:21:27;;;;;;;29.33;7.10;;;21.50;19.40;;;;;;4992020;28;20464;-68
2022/06/19 01:24:02;;;;;;;30.90;7.10;;;21.50;19.70;;;;;;4991466;28;20440;-68
2022/06/19 01:26:33;;;;;;;30.33;7.23;;;21.40;19.50;;;;;;4991558;28;20440;-68
2022/06/19 01:29:00;;;;;;;30.00;6.90;;;21.40;19.70;;;;;;4990760;28;20480;-67
2022/06/19 01:31:31;;;;;;;30.60;6.80;;;21.30;19.70;;;;;;4991340;28;20497;-69
2022/06/19 01:34:01;;;;;;;31.50;7.23;;;21.30;20.10;;;;;;4991554;28;20467;-68
2022/06/19 01:36:30;;;;;;;33.77;7.63;;;21.30;20.40;;;;;;4991134;28;20472;-68
2022/06/19 01:38:59;;;;;;;31.13;8.03;;;21.20;20.50;;;;;;4990219;28;20492;-69
2022/06/19 01:41:29;;;;;;;32.40;7.27;;;21.20;20.40;;;;;;4991153;28;20468;-68
2022/06/19 01:43:58;;;;;;;34.80;8.00;;;21.30;20.70;;;;;;4991542;28;20467;-68
2022/06/19 01:46:27;;;;;;;34.33;8.70;;;21.20;20.70;;;;;;4991511;28;20464;-67
2022/06/19 01:48:54;;;;;;;29.00;7.60;;;21.20;20.60;;;;;;4989891;28;20538;-68
2022/06/19 01:51:21;;;;;;;32.53;7.87;;;21.30;21.10;;;;;;4991636;28;20879;-68
2022/06/19 01:53:52;;;;;;;30.77;8.50;;;21.20;20.90;;;;;;4989460;28;20460;-67
2022/06/19 01:56:19;;;;;;;31.90;8.43;;;21.20;21.10;;;;;;4990741;28;20858;-67
2022/06/19 01:58:50;;;;;;;31.63;8.50;;;21.20;20.90;;;;;;4990238;28;20580;-67
2022/06/19 02:01:18;;;;;;;31.90;8.33;;;21.20;21.00;;;;;;4990144;28;20476;-67
2022/06/19 02:03:49;;;;;;;31.23;7.50;;;21.20;21.00;;;;;;4990759;28;20457;-67
2022/06/19 02:06:20;;;;;;;28.50;7.20;;;21.10;21.10;;;;;;4988479;28;20669;-67
2022/06/19 02:08:48;;;;;;;27.93;7.30;;;21.10;21.00;;;;;;4990955;28;20477;-69
2022/06/19 02:11:16;;;;;;;29.83;7.97;;;21.10;21.30;;;;;;4990178;28;20488;-67
2022/06/19 02:13:44;;;;;;;27.80;6.80;;;21.10;21.20;;;;;;4990747;28;20468;-68
2022/06/19 02:16:14;;;;;;;32.43;7.53;;;21.10;21.30;;;;;;4989467;28;20531;-68
2022/06/19 02:18:45;;;;;;;38.83;8.90;;;21.00;21.10;;;;;;4990278;28;20497;-67
2022/06/19 02:21:18;;;;;;;35.53;8.27;;;21.00;21.10;;;;;;4990657;28;20457;-69
2022/06/19 02:23:45;;;;;;;31.17;8.30;;;21.00;21.40;;;;;;4990370;28;20453;-68
2022/06/19 02:26:12;;;;;;;36.23;8.10;;;21.00;21.30;;;;;;4990585;28;20460;-68
2022/06/19 02:28:42;;;;;;;31.60;7.30;;;20.90;21.50;;;;;;4988145;28;20524;-69
2022/06/19 02:31:08;;;;;;;32.57;7.00;;;20.90;22.20;;;;;;4989907;28;21012;-68
2022/06/19 02:33:41;;;;;;;32.33;7.67;;;20.80;21.70;;;;;;4991111;28;20942;-66
2022/06/19 02:36:33;;;;;;;35.80;8.07;;;20.80;21.50;;;;;;4990062;28;20456;-67
2022/06/19 02:39:07;;;;;;;29.47;7.70;;;20.90;21.80;;;;;;4989023;28;20489;-67
2022/06/19 02:41:42;;;;;;;28.27;8.07;;;20.80;21.80;;;;;;4989555;28;20460;-67
2022/06/19 02:44:09;;;;;;;36.00;8.00;;;20.80;22.10;;;;;;4990360;28;20918;-68
2022/06/19 02:46:36;;;;;;;34.50;9.63;;;20.70;22.20;;;;;;4988665;28;20559;-69
2022/06/19 02:49:03;;;;;;;32.07;7.33;;;20.70;22.30;;;;;;4988055;28;20496;-67
2022/06/19 02:51:30;;;;;;;30.90;7.50;;;20.70;22.20;;;;;;4990035;28;20468;-67
2022/06/19 02:53:58;;;;;;;33.43;8.13;;;20.60;22.00;;;;;;4989755;28;20465;-68
2022/06/19 02:56:25;;;;;;;33.73;7.50;;;20.60;21.90;;;;;;4990372;28;20468;-68
2022/06/19 02:58:52;;;;;;;33.03;7.37;;;20.60;21.80;;;;;;4988866;28;20489;-67
2022/06/19 03:01:19;;;;;;;32.17;6.63;;;20.60;21.80;;;;;;4988921;28;20484;-67
2022/06/19 03:03:46;;;;;;;35.60;7.17;;;20.60;22.10;;;;;;4989193;28;20972;-67
2022/06/19 03:06:12;;;;;;;30.20;7.00;;;20.60;21.70;;;;;;4989580;28;20481;-67
2022/06/19 03:08:39;;;;;;;32.00;7.90;;;20.50;21.90;;;;;;4988634;28;20866;-68
2022/06/19 03:11:08;;;;;;;34.70;7.57;;;20.60;21.90;;;;;;4989451;28;20452;-67
2022/06/19 03:13:34;;;;;;;33.87;7.90;;;20.50;21.90;;;;;;4989279;28;20453;-68
2022/06/19 03:16:02;;;;;;;32.27;7.73;;;20.50;21.90;;;;;;4989579;28;20710;-68
2022/06/19 03:18:29;;;;;;;29.17;7.17;;;20.50;21.80;;;;;;4987924;28;20863;-67
2022/06/19 03:20:56;;;;;;;28.67;7.20;;;20.60;21.80;;;;;;4988601;28;21121;-68
2022/06/19 03:23:22;;;;;;;31.27;7.20;;;20.60;21.80;;;;;;4989207;28;20475;-67
2022/06/19 03:25:49;;;;;;;31.50;8.13;;;20.50;22.20;;;;;;4989103;28;20862;-68
2022/06/19 03:28:18;;;;;;;35.37;7.53;;;20.50;22.40;;;;;;4989202;28;20821;-67
2022/06/19 03:30:44;;;;;;;31.40;7.73;;;20.50;22.50;;;;;;4987272;28;21015;-68
2022/06/19 03:33:11;;;;;;;31.73;7.90;;;20.60;22.50;;;;;;4989356;28;20471;-69
2022/06/19 03:35:38;;;;;;;30.87;8.33;;;20.50;22.50;;;;;;4988936;28;20825;-66
2022/06/19 03:38:05;;;;;;;31.10;6.87;;;20.50;22.50;;;;;;4988708;28;20465;-67
2022/06/19 03:40:31;;;;;;;34.07;8.07;;;20.50;22.70;;;;;;4987490;28;20604;-69
2022/06/19 03:42:58;;;;;;;32.30;7.70;;;20.60;22.60;;;;;;4988817;28;20465;-67
2022/06/19 03:45:26;;;;;;;35.83;8.27;;;20.60;22.30;;;;;;4989115;28;20457;-67
2022/06/19 03:47:53;;;;;;;29.23;7.80;;;20.60;22.20;;;;;;4988336;28;20464;-67
2022/06/19 03:50:20;;;;;;;31.77;7.10;;;20.60;22.20;;;;;;4987645;28;20471;-67
2022/06/19 03:52:47;;;;;;;31.00;6.83;;;20.60;22.30;;;;;;4988352;28;20460;-68
2022/06/19 03:55:14;;;;;;;31.23;7.17;;;20.60;22.10;;;;;;4988627;28;20864;-68
2022/06/19 03:57:41;;;;;;;32.80;7.70;;;20.60;22.10;;;;;;4988978;28;20464;-67
2022/06/19 04:00:09;;;;;;;30.17;6.47;;;20.60;22.00;;;;;;4987516;28;20496;-68
2022/06/19 04:02:39;;;;;;;33.03;6.87;;;20.70;22.00;;;;;;4988026;28;20500;-68
2022/06/19 04:05:07;;;;;;;32.60;6.63;;;20.80;21.60;;;;;;4986186;28;20471;-69
2022/06/19 04:07:34;;;;;;;30.43;7.60;;;20.80;21.70;;;;;;4987484;28;20472;-68
2022/06/19 04:10:02;;;;;;;31.50;6.03;;;20.90;21.70;;;;;;4988404;28;20477;-69
2022/06/19 04:12:29;;;;;;;31.60;6.80;;;20.90;21.60;;;;;;4988451;28;20499;-68
2022/06/19 04:14:55;;;;;;;28.47;6.10;;;20.90;21.70;;;;;;4989210;28;20465;-68
2022/06/19 04:17:22;;;;;;;29.03;6.30;;;20.90;21.90;;;;;;4986951;28;20491;-68
2022/06/19 04:19:50;;;;;;;29.30;7.10;;;20.90;22.40;;;;;;4988769;28;20485;-67
2022/06/19 04:22:17;;;;;;;29.83;6.90;;;21.00;22.70;;;;;;4988410;28;20846;-67
2022/06/19 04:24:44;;;;;;;28.93;6.40;;;21.00;23.10;;;;;;4988146;28;20460;-68
2022/06/19 04:27:11;;;;;;;29.67;7.50;;;21.00;23.50;;;;;;4986900;28;20764;-67
2022/06/19 04:29:38;;;;;;;31.43;6.63;;;21.10;23.70;;;;;;4987048;28;20481;-68
2022/06/19 04:32:05;;;;;;;27.33;6.73;;;21.20;23.80;;;;;;4987986;28;20477;-67
2022/06/19 04:34:32;;;;;;;33.23;7.00;;;21.40;24.30;;;;;;4988148;28;20460;-67
2022/06/19 04:37:00;;;;;;;30.87;7.53;;;22.00;23.80;;;;;;4987172;28;20469;-68
2022/06/19 04:39:27;;;;;;;33.80;7.17;;;22.30;22.30;;;;;;4988774;28;20951;-67
2022/06/19 04:41:53;;;;;;;31.77;7.33;;;22.80;20.90;;;;;;4987605;28;20461;-67
2022/06/19 04:44:21;;;;;;;33.70;7.30;;;23.40;19.70;;;;;;4987903;28;20461;-67
2022/06/19 04:46:48;;;;;;;34.60;7.00;;;23.90;18.70;;;;;;4986826;28;20468;-69
2022/06/19 04:49:17;;;;;;;33.20;6.83;;;24.40;17.90;;;;;;4988515;28;20481;-67
2022/06/19 04:51:44;;;;;;;36.40;7.47;;;24.90;17.10;;;;;;4988316;28;20950;-67
2022/06/19 04:54:13;;;;;;;35.47;7.67;;;25.40;16.10;;;;;;4987627;28;20952;-66
2022/06/19 04:56:40;;;;;;;32.10;6.97;;;25.80;15.10;;;;;;4987816;28;20856;-70
2022/06/19 04:59:08;;;;;;;34.10;7.10;;;26.10;14.60;;;;;;4986794;28;20491;-69
2022/06/19 05:01:37;;;;;;;35.77;7.53;;;26.40;14.20;;;;;;4987388;28;20469;-68
2022/06/19 05:04:07;;;;;;;31.97;7.30;;;26.90;13.40;;;;;;4987410;28;20974;-69
2022/06/19 05:06:34;;;;;;;34.07;6.57;;;27.50;12.60;;;;;;4987900;28;20464;-67
2022/06/19 05:09:01;;;;;;;32.63;6.70;;;28.10;11.40;;;;;;4986826;28;20484;-66
2022/06/19 05:11:31;;;;;;;39.50;6.70;;;28.60;10.00;;;;;;4987214;28;20461;-67
2022/06/19 05:13:58;;;;;;;32.13;6.37;;;29.20;9.40;;;;;;4988022;28;20495;-70
2022/06/19 05:16:26;;;;;;;32.60;6.23;;;29.70;8.50;;;;;;4987573;28;20961;-68
2022/06/19 05:18:54;;;;;;;32.80;6.30;;;30.30;7.60;;;;;;4987781;28;20484;-68
2022/06/19 05:21:22;;;;;;;36.20;7.47;;;30.80;6.50;;;;;;4986252;28;20485;-71
2022/06/19 05:23:51;;;;;;;33.20;5.50;;;31.20;6.10;;;;;;4987268;28;20475;-69
2022/06/19 05:26:20;;;;;;;29.77;6.80;;;31.70;5.00;;;;;;4987810;28;20456;-67
2022/06/19 05:28:50;;;;;;;31.90;6.30;;;32.20;4.30;;;;;;4987671;28;20480;-67
2022/06/19 05:31:17;;;;;;;34.90;6.57;;;32.60;3.10;;;;;;4985799;28;20489;-68
2022/06/19 05:33:44;;;;;;;33.60;5.80;;;33.00;2.80;;;;;;4987249;28;20499;-68
2022/06/19 05:36:11;;;;;;;37.20;5.90;;;33.40;2.20;;;;;;4987360;28;20456;-70
2022/06/19 05:38:38;;;;;;;30.27;5.33;;;33.90;1.20;;;;;;4987469;28;20853;-69
2022/06/19 05:41:05;;;;;;;32.70;6.50;;;34.40;1.00;;;;;;4987688;28;20488;-69
2022/06/19 05:43:34;;;;;;;31.10;5.97;;;34.90;1.00;;;;;;4986337;28;20496;-71
2022/06/19 05:46:04;;;;;;;36.10;6.27;;;35.30;1.00;;;;;;4990568;28;20463;-68
2022/06/19 05:48:33;;;;;;;32.00;5.80;;;35.70;1.00;;;;;;4991240;28;21081;-67
2022/06/19 05:51:02;;;;;;;35.30;6.63;;;36.30;1.00;;;;;;4991277;28;20767;-68
2022/06/19 05:53:30;;;;;;;31.73;6.17;;;36.80;1.00;;;;;;4989367;28;20465;-68
2022/06/19 05:55:57;;;;;;;38.43;5.27;;;37.30;1.00;;;;;;4990574;28;20475;-67
2022/06/19 05:58:24;;;;;;;29.73;5.07;;;37.60;1.00;;;;;;4991204;28;20567;-65
2022/06/19 06:00:52;;;;;;;36.03;6.13;;;38.20;1.00;;;;;;4989573;28;20468;-65
2022/06/19 06:03:21;;;;;;;35.03;6.60;;;39.10;1.00;;;;;;4989577;28;20461;-65
2022/06/19 06:05:49;;;;;;;27.47;4.90;;;39.70;1.00;;;;;;4990720;28;20928;-68
2022/06/19 06:08:17;;;;;;;33.90;5.63;;;40.40;1.00;;;;;;4990583;28;20477;-68
2022/06/19 06:10:44;;;;;;;31.53;5.40;;;40.70;1.00;;;;;;4989341;28;20472;-66
2022/06/19 06:13:10;;;;;;;28.77;5.00;;;41.30;1.00;;;;;;4990740;28;20461;-67
2022/06/19 06:15:37;;;;;;;29.20;5.40;;;41.80;1.00;;;;;;4990462;28;20467;-67
2022/06/19 06:18:05;;;;;;;31.80;5.23;;;41.60;1.00;;;;;;4990452;28;20467;-67
2022/06/19 06:20:33;;;;;;;34.13;6.20;;;40.20;1.00;;;;;;4989214;28;20897;-67
2022/06/19 06:22:59;;;;;;;30.17;5.43;;;38.80;1.00;;;;;;4990158;28;20487;-67
2022/06/19 06:25:26;;;;;;;30.67;5.47;;;37.90;1.00;;;;;;4990244;28;20457;-67
2022/06/19 06:27:53;;;;;;;31.50;5.23;;;38.30;1.00;;;;;;4989970;28;20847;-68
2022/06/19 06:30:20;;;;;;;33.80;6.47;;;39.90;1.00;;;;;;4988651;28;20996;-67
2022/06/19 06:32:47;;;;;;;31.60;5.70;;;41.30;1.00;;;;;;4990367;28;20460;-67
2022/06/19 06:35:14;;;;;;;33.10;5.97;;;41.20;1.00;;;;;;4989619;28;20484;-67
2022/06/19 06:37:42;;;;;;;29.67;5.50;;;41.60;1.00;;;;;;4990113;28;20457;-67
2022/06/19 06:40:11;;;;;;;29.17;4.93;;;42.70;1.00;;;;;;4989965;28;20476;-67
2022/06/19 06:42:38;;;;;;;33.93;6.03;;;43.90;1.00;;;;;;4988502;28;20477;-68
2022/06/19 06:45:07;;;;;;;30.80;5.07;;;44.80;1.00;;;;;;4989896;28;20831;-68
2022/06/19 06:47:33;;;;;;;30.73;6.10;;;45.90;1.00;;;;;;4989378;28;20479;-68
2022/06/19 06:50:00;;;;;;;29.30;4.70;;;46.60;1.00;;;;;;4989334;28;21004;-68
2022/06/19 06:52:28;;;;;;;30.77;5.00;;;47.10;1.00;;;;;;4988645;28;20492;-68
2022/06/19 06:54:56;;;;;;;31.33;5.70;;;47.70;1.00;;;;;;4989399;28;20468;-68
2022/06/19 06:57:23;;;;;;;29.10;5.77;;;48.20;1.00;;;;;;4988955;28;20469;-68
2022/06/19 06:59:50;;;;;;;27.63;4.80;;;48.80;1.00;;;;;;4989570;28;20477;-68
2022/06/19 07:02:16;;;;;;;25.37;4.30;;;48.90;1.00;;;;;;4988009;28;20487;-68
2022/06/19 07:04:43;;;;;;;28.07;5.77;;;47.80;1.00;;;;;;4989601;28;20460;-68
2022/06/19 07:07:10;;;;;;;30.13;5.00;;;47.30;1.00;;;;;;4990324;28;20464;-68
2022/06/19 07:09:37;;;;;;;28.47;4.87;;;48.10;1.00;;;;;;4989460;28;20508;-68
2022/06/19 07:12:06;;;;;;;28.40;5.10;;;48.80;1.00;;;;;;4987874;28;20460;-68
2022/06/19 07:14:33;;;;;;;28.27;4.40;;;49.60;1.00;;;;;;4989515;28;20461;-68
2022/06/19 07:16:59;;;;;;;29.70;5.10;;;50.10;1.00;;;;;;4989089;28;20503;-68
2022/06/19 07:19:27;;;;;;;29.93;4.73;;;50.70;1.00;;;;;;4988893;28;20488;-68
2022/06/19 07:21:53;;;;;;;30.40;5.20;;;51.10;1.00;;;;;;4988891;28;20481;-68
2022/06/19 07:24:20;;;;;;;31.97;5.07;;;51.50;1.00;;;;;;4986885;28;20849;-68
2022/06/19 07:26:47;;;;;;;22.60;4.20;;;51.90;1.00;;;;;;4989434;28;20995;-68
2022/06/19 07:29:15;;;;;;;30.00;5.57;;;52.20;1.00;;;;;;4989183;28;20487;-68
2022/06/19 07:31:42;;;;;;;27.00;4.20;;;52.60;1.00;;;;;;4989477;28;20465;-68
2022/06/19 07:34:09;;;;;;;25.20;4.70;;;53.00;1.00;;;;;;4988520;28;20464;-69
2022/06/19 07:36:36;;;;;;;27.60;4.77;;;53.40;1.00;;;;;;4988594;28;20575;-69
2022/06/19 07:39:04;;;;;;;30.30;5.43;;;53.80;1.00;;;;;;4987841;28;20480;-70
2022/06/19 07:41:31;;;;;;;29.73;5.60;;;54.10;1.00;;;;;;4988205;28;20476;-70
2022/06/19 07:43:58;;;;;;;30.07;5.40;;;54.50;1.00;;;;;;4988633;28;20464;-70
2022/06/19 07:46:26;;;;;;;26.07;4.60;;;54.70;1.00;;;;;;4988565;28;20972;-70
2022/06/19 07:51:37;;;;;;;29.07;4.30;;;55.40;1.00;;;;;;4988829;28;20456;-70
2022/06/19 07:54:04;;;;;;;29.73;5.10;;;55.50;1.00;;;;;;4986992;28;20976;-70
2022/06/19 07:56:31;;;;;;;29.03;5.33;;;55.70;1.00;;;;;;4988832;28;20452;-69
2022/06/19 07:58:58;;;;;;;26.03;4.73;;;56.00;1.00;;;;;;4988095;28;20489;-70
2022/06/19 08:01:27;;;;;;;26.50;4.93;;;56.40;1.00;;;;;;4987724;28;20539;-70
2022/06/19 08:03:53;;;;;;;28.07;5.40;;;56.60;1.00;;;;;;4988595;28;20470;-69
2022/06/19 08:06:20;;;;;;;26.93;4.57;;;56.70;1.00;;;;;;4987404;28;20479;-70
2022/06/19 08:08:48;;;;;;;28.03;5.10;;;56.90;1.00;;;;;;4987990;28;20813;-70
2022/06/19 08:11:14;;;;;;;27.27;5.00;;;56.20;1.00;;;;;;4988378;28;20659;-71
2022/06/19 08:13:41;;;;;;;26.90;4.60;;;54.80;1.00;;;;;;4988552;28;20993;-70
2022/06/19 08:16:10;;;;;;;28.00;5.43;;;55.00;1.00;;;;;;4986982;28;21009;-70
2022/06/19 08:18:39;;;;;;;27.00;4.97;;;55.60;1.00;;;;;;4987883;28;21001;-70
2022/06/19 08:21:06;;;;;;;27.80;4.73;;;56.20;1.00;;;;;;4988455;28;20487;-70
2022/06/19 08:23:32;;;;;;;27.47;5.40;;;56.60;1.00;;;;;;4988392;28;20460;-70
2022/06/19 08:26:00;;;;;;;29.37;5.53;;;56.10;1.00;;;;;;4981688;28;20464;-70
2022/06/19 08:28:31;;;;;;;25.17;5.03;;;54.60;1.00;;;;;;4984876;28;20487;-73
2022/06/19 08:30:58;;;;;;;27.83;5.00;;;53.70;1.00;;;;;;4973306;28;20503;-71
2022/06/19 08:33:24;;;;;;;27.90;5.07;;;54.10;1.00;;;;;;4982831;28;20460;-71
2022/06/19 08:35:56;;;;;;;23.60;4.40;;;54.70;1.00;;;;;;4983219;28;20499;-71
2022/06/19 08:38:26;;;;;;;26.40;4.40;;;55.50;1.00;;;;;;4976195;28;20484;-71
2022/06/19 08:41:32;;;;;;;26.20;5.20;;;56.20;1.00;;;;;;4987293;28;20456;-69
2022/06/19 08:44:26;;;;;;;25.33;4.83;;;56.70;1.00;;;;;;4938743;28;20456;-70
2022/06/19 08:47:08;;;;;;;25.47;4.80;;;57.40;1.00;;;;;;4986540;28;20467;-71
2022/06/19 08:49:46;;;;;;;28.17;4.67;;;57.70;1.00;;;;;;4983660;28;20310;-70
2022/06/19 08:52:26;;;;;;;27.95;4.60;;;58.10;1.00;;;;;;4981632;28;20539;-70
2022/06/19 08:55:02;;;;;;;30.75;5.13;;;58.30;1.00;;;;;;4984630;28;20209;-72
2022/06/19 08:57:39;;;;;;;31.02;5.15;;;58.80;1.00;;;;;;4979918;28;20228;-70
2022/06/19 09:00:12;;;;;;;27.48;5.00;;;59.10;1.00;;;;;;4981668;28;20728;-70
2022/06/19 09:02:48;;;;;;;26.77;5.32;;;59.20;1.00;;;;;;4983800;28;20225;-70
2022/06/19 09:05:38;;;;;;;25.85;5.60;;;59.30;1.00;;;;;;4982444;28;20203;-70
2022/06/19 09:08:30;;;;;;;25.05;5.18;;;59.30;1.00;;;;;;4983690;28;20666;-70
2022/06/19 09:11:05;;;;;;;27.10;6.18;;;59.10;1.00;;;;;;4984929;28;20197;-70
2022/06/19 09:13:46;;;;;;;26.63;5.35;;;59.00;1.00;;;;;;4979305;28;20211;-72
2022/06/19 09:16:23;;;;;;;24.00;4.90;;;58.80;1.00;;;;;;4980212;28;20194;-70
2022/06/19 09:19:00;;;;;;;27.05;5.03;;;58.40;1.00;;;;;;4983369;28;20247;-72
2022/06/19 09:21:32;;;;;;;28.77;5.37;;;57.00;1.00;;;;;;4992056;28;20217;-70
2022/06/19 09:24:21;;;;;;;24.83;5.40;;;55.20;1.00;;;;;;4986880;28;20194;-70
2022/06/19 09:26:55;;;;;;;32.50;5.93;;;53.10;1.00;;;;;;4982248;28;20468;-70
2022/06/19 09:29:27;;;;;;;35.07;5.93;;;51.40;1.00;;;;;;4983136;28;20496;-69
2022/06/19 09:32:01;;;;;;;29.17;5.53;;;49.80;1.00;;;;;;4984972;28;20491;-73
2022/06/19 09:34:38;;;;;;;33.77;6.40;;;48.50;1.00;;;;;;4983955;28;20472;-70
2022/06/19 09:37:11;;;;;;;29.30;5.33;;;47.30;1.00;;;;;;4986467;28;21099;-70
2022/06/19 09:39:47;;;;;;;26.70;5.83;;;46.20;1.00;;;;;;4991249;28;20487;-70
2022/06/19 09:42:19;;;;;;;29.80;5.57;;;45.20;1.00;;;;;;4988549;28;20598;-69
2022/06/19 09:44:53;;;;;;;30.30;7.20;;;44.40;1.00;;;;;;4988780;28;20456;-69
2022/06/19 09:47:29;;;;;;;33.83;6.83;;;43.70;1.00;;;;;;4986728;28;20496;-70
2022/06/19 09:50:00;;;;;;;32.63;7.00;;;43.20;1.00;;;;;;4983288;28;21016;-70
2022/06/19 09:52:33;;;;;;;29.27;6.30;;;42.60;1.00;;;;;;4975259;28;20489;-69
2022/06/19 09:55:08;;;;;;;31.40;6.30;;;42.30;1.00;;;;;;4971209;28;20923;-69
2022/06/19 09:57:39;;;;;;;32.20;6.60;;;41.90;1.00;;;;;;4972275;28;20984;-69
2022/06/19 10:00:09;;;;;;;28.83;7.10;;;41.70;1.00;;;;;;4981750;28;20492;-71
2022/06/19 10:02:44;;;;;;;32.33;8.10;;;41.40;1.00;;;;;;4988632;28;20481;-70
2022/06/19 10:05:19;;;;;;;29.43;6.50;;;41.10;1.00;;;;;;4983763;28;20468;-72
2022/06/19 10:07:51;;;;;;;35.07;7.73;;;40.80;1.00;;;;;;4985569;28;20460;-70
2022/06/19 10:10:26;;;;;;;29.80;6.60;;;40.60;1.00;;;;;;4990672;28;20481;-71
2022/06/19 10:12:56;;;;;;;37.27;8.47;;;40.40;1.00;;;;;;4989717;28;20752;-69
2022/06/19 10:15:29;;;;;;;37.50;7.80;;;40.20;1.00;;;;;;4989581;28;20472;-70
2022/06/19 10:18:00;;;;;;;34.37;8.40;;;40.00;1.00;;;;;;4990208;28;20535;-71
2022/06/19 10:20:33;;;;;;;29.63;8.00;;;39.80;1.00;;;;;;4990370;28;20460;-70
2022/06/19 10:23:11;;;;;;;31.97;7.37;;;39.70;1.00;;;;;;4990110;28;20492;-69
2022/06/19 10:26:04;;;;;;;34.90;7.63;;;39.60;1.00;;;;;;4988232;28;20471;-69
2022/06/19 10:29:00;;;;;;;28.57;7.60;;;39.40;1.00;;;;;;4989526;28;20481;-70
2022/06/19 10:31:41;;;;;;;32.13;8.40;;;39.30;1.00;;;;;;4988782;28;20488;-69
2022/06/19 10:34:17;;;;;;;32.60;8.73;;;39.30;1.00;;;;;;4988660;28;20515;-72
2022/06/19 10:36:52;;;;;;;33.27;9.00;;;39.20;1.00;;;;;;4985521;28;20460;-74
2022/06/19 10:39:32;;;;;;;34.13;8.60;;;39.30;1.00;;;;;;4989804;28;20867;-70
2022/06/19 10:42:12;;;;;;;34.17;7.90;;;39.10;1.00;;;;;;4988660;28;20530;-70
2022/06/19 10:45:09;;;;;;;30.93;8.17;;;39.00;1.00;;;;;;4988933;28;20452;-70
2022/06/19 10:48:03;;;;;;;28.33;8.00;;;38.90;1.00;;;;;;4988550;28;20462;-70
2022/06/19 10:50:39;;;;;;;31.40;7.97;;;38.80;1.00;;;;;;4986950;28;20473;-71
2022/06/19 10:53:21;;;;;;;30.00;7.87;;;38.70;1.00;;;;;;4987946;28;20891;-72
2022/06/19 10:55:54;;;;;;;29.97;7.83;;;38.60;1.00;;;;;;4988677;28;20445;-69
2022/06/19 10:58:25;;;;;;;28.20;7.90;;;38.60;1.00;;;;;;4989475;28;20488;-70
2022/06/19 11:00:54;;;;;;;33.27;8.27;;;38.50;1.00;;;;;;4987871;28;21060;-72
2022/06/19 11:06:21;;;;;;;31.80;8.23;;;38.30;1.00;;;;;;4988842;28;20444;-73
2022/06/19 11:08:51;;;;;;;31.23;8.13;;;38.20;1.00;;;;;;4988464;28;20495;-69
2022/06/19 11:11:19;;;;;;;32.10;8.07;;;38.10;1.00;;;;;;4989819;28;20461;-71
2022/06/19 11:14:03;;;;;;;36.13;8.00;;;38.00;1.00;;;;;;4989004;28;20460;-70
2022/06/19 11:16:32;;;;;;;31.27;7.83;;;37.90;1.00;;;;;;4989648;28;20942;-72
2022/06/19 11:18:59;;;;;;;29.90;7.47;;;37.80;1.00;;;;;;4988055;28;20485;-71
2022/06/19 11:21:30;;;;;;;33.30;8.67;;;37.70;1.00;;;;;;4989730;28;20487;-71
2022/06/19 11:24:00;;;;;;;29.33;7.40;;;37.70;1.00;;;;;;4989801;28;20914;-69
2022/06/19 11:26:35;;;;;;;34.57;7.40;;;37.50;1.00;;;;;;4989470;28;20491;-72
2022/06/19 11:29:09;;;;;;;31.23;8.03;;;37.50;1.00;;;;;;4987938;28;20491;-70
2022/06/19 11:31:39;;;;;;;34.77;8.70;;;37.50;1.00;;;;;;4988895;28;20478;-70
2022/06/19 11:37:10;;;;;;;34.50;7.80;;;37.30;1.00;;;;;;4987439;28;20445;-70
2022/06/19 11:39:39;;;;;;;33.53;8.17;;;37.30;1.00;;;;;;4987253;28;21069;-70
2022/06/19 11:42:31;;;;;;;31.87;7.63;;;37.10;1.00;;;;;;4988035;28;20484;-70
2022/06/19 11:45:01;;;;;;;31.10;7.27;;;37.00;1.00;;;;;;4988570;28;20638;-69
2022/06/19 11:47:40;;;;;;;34.57;8.00;;;36.90;1.00;;;;;;4988864;28;20464;-69
2022/06/19 11:50:17;;;;;;;33.73;7.97;;;36.90;1.00;;;;;;4987197;28;20871;-69
2022/06/19 11:52:49;;;;;;;33.63;7.60;;;36.90;1.00;;;;;;4988171;28;20953;-69
2022/06/19 11:55:20;;;;;;;35.77;8.23;;;36.80;1.00;;;;;;4988930;28;20465;-69
2022/06/19 11:57:50;;;;;;;35.10;9.27;;;36.80;1.00;;;;;;4988603;28;20456;-69
2022/06/19 12:00:27;;;;;;;34.43;8.17;;;36.70;1.00;;;;;;4987005;28;20492;-71
2022/06/19 12:02:56;;;;;;;31.77;7.90;;;36.50;1.00;;;;;;4988366;28;20484;-70
2022/06/19 12:05:28;;;;;;;29.67;7.60;;;36.50;1.00;;;;;;4988383;28;20465;-72
2022/06/19 12:07:57;;;;;;;37.13;9.40;;;36.50;1.00;;;;;;4988299;28;20511;-72
2022/06/19 12:10:27;;;;;;;31.43;8.37;;;36.50;1.00;;;;;;4987127;28;20468;-71
2022/06/19 12:12:56;;;;;;;30.77;9.00;;;36.50;1.00;;;;;;4985293;28;20472;-69
2022/06/19 12:15:27;;;;;;;31.97;8.37;;;36.40;1.00;;;;;;4987864;28;20510;-69
2022/06/19 12:18:00;;;;;;;32.60;8.23;;;36.40;1.00;;;;;;4981325;28;21011;-71
2022/06/19 12:20:29;;;;;;;33.03;9.20;;;36.30;1.00;;;;;;4979597;28;20469;-70
2022/06/19 12:23:00;;;;;;;34.20;8.90;;;36.30;1.00;;;;;;4977715;28;20482;-73
2022/06/19 12:25:41;;;;;;;32.20;8.10;;;36.30;1.00;;;;;;4984560;28;20488;-70
2022/06/19 12:28:19;;;;;;;36.07;9.23;;;36.20;1.00;;;;;;4984127;28;20460;-70
2022/06/19 12:30:52;;;;;;;31.27;8.00;;;36.30;1.00;;;;;;4984616;28;20723;-70
2022/06/19 12:33:25;;;;;;;32.50;8.77;;;36.20;1.00;;;;;;4986632;28;20453;-71
2022/06/19 12:35:52;;;;;;;38.00;8.90;;;36.10;1.00;;;;;;4987400;28;20441;-69
2022/06/19 12:38:21;;;;;;;35.30;8.70;;;36.00;1.00;;;;;;4987691;28;20481;-72
2022/06/19 12:41:05;;;;;;;39.13;9.80;;;35.90;1.00;;;;;;4986748;28;20468;-69
2022/06/19 12:43:45;;;;;;;33.10;9.17;;;35.80;1.00;;;;;;4986929;28;20468;-69
2022/06/19 12:46:27;;;;;;;39.37;9.90;;;35.80;1.00;;;;;;4987393;28;20456;-69
2022/06/19 12:49:03;;;;;;;38.07;9.60;;;35.70;1.00;;;;;;4987252;28;20508;-71
2022/06/19 12:51:37;;;;;;;32.07;8.63;;;35.70;1.00;;;;;;4985918;28;20945;-69
2022/06/19 12:54:27;;;;;;;37.67;9.00;;;35.70;1.00;;;;;;4989021;28;20445;-69
2022/06/19 12:57:07;;;;;;;36.70;9.13;;;35.70;1.00;;;;;;4948565;28;20452;-71
2022/06/19 13:00:03;;;;;;;39.73;8.40;;;35.70;1.00;;;;;;4991573;28;20923;-72
2022/06/19 13:02:49;;;;;;;31.93;8.33;;;35.70;1.00;;;;;;4989261;28;20469;-70
2022/06/19 13:05:24;;;;;;;31.97;8.77;;;35.60;1.00;;;;;;4992431;28;20449;-70
2022/06/19 13:08:03;;;;;;;35.37;9.87;;;35.60;1.00;;;;;;4991600;28;20447;-69
2022/06/19 13:10:46;;;;;;;30.57;9.67;;;35.60;1.00;;;;;;4991777;28;20816;-68